createdAt,value
2023-03-21T00:01:55.768Z,22.30
2023-03-21T00:04:24.596Z,22.30
2023-03-21T00:06:51.759Z,22.30
2023-03-21T00:09:19.411Z,22.30
2023-03-21T00:11:46.810Z,22.30
2023-03-21T00:14:19.122Z,22.30
2023-03-21T00:16:50.930Z,22.30
2023-03-21T00:19:21.079Z,22.30
2023-03-21T00:22:08.862Z,22.30
2023-03-21T00:24:37.083Z,22.20
2023-03-21T00:29:52.379Z,22.20
2023-03-21T00:32:21.428Z,22.30
2023-03-21T00:35:01.514Z,22.30
2023-03-21T00:37:32.201Z,22.20
2023-03-21T00:39:59.393Z,22.30
2023-03-21T00:42:26.606Z,22.20
2023-03-21T00:44:53.632Z,22.20
2023-03-21T00:47:20.997Z,22.30
2023-03-21T00:49:48.067Z,22.30
2023-03-21T00:52:20.379Z,22.20
2023-03-21T00:54:54.555Z,22.30
2023-03-21T00:57:29.290Z,22.20
2023-03-21T01:00:04.464Z,22.30
2023-03-21T01:02:31.712Z,22.20
2023-03-21T01:04:58.924Z,22.20
2023-03-21T01:07:26.060Z,22.20
2023-03-21T01:09:53.117Z,22.20
2023-03-21T01:12:20.363Z,22.20
2023-03-21T01:14:47.581Z,22.20
2023-03-21T01:17:14.702Z,22.20
2023-03-21T01:19:51.519Z,22.20
2023-03-21T01:22:19.047Z,22.20
2023-03-21T01:24:54.151Z,22.20
2023-03-21T01:27:24.035Z,22.20
2023-03-21T01:29:51.134Z,22.20
2023-03-21T01:32:18.221Z,22.20
2023-03-21T01:34:45.325Z,22.20
2023-03-21T01:37:12.376Z,22.20
2023-03-21T01:39:39.466Z,22.10
2023-03-21T01:42:06.553Z,22.10
2023-03-21T01:44:57.975Z,22.10
2023-03-21T01:47:26.079Z,22.10
2023-03-21T01:49:58.041Z,22.10
2023-03-21T01:52:37.569Z,22.10
2023-03-21T01:55:12.038Z,22.10
2023-03-21T01:57:58.202Z,22.10
2023-03-21T02:00:29.734Z,22.10
2023-03-21T02:03:11.116Z,22.10
2023-03-21T02:05:51.607Z,22.10
2023-03-21T02:08:19.878Z,22.10
2023-03-21T02:10:50.662Z,22.00
2023-03-21T02:13:17.887Z,22.10
2023-03-21T02:16:00.181Z,22.00
2023-03-21T02:18:57.851Z,22.00
2023-03-21T02:22:01.559Z,22.00
2023-03-21T02:25:04.214Z,22.00
2023-03-21T02:27:47.151Z,22.00
2023-03-21T02:30:51.242Z,22.00
2023-03-21T02:33:58.736Z,22.00
2023-03-21T02:36:52.642Z,22.00
2023-03-21T02:39:43.029Z,22.00
2023-03-21T02:42:37.729Z,22.00
2023-03-21T02:45:21.361Z,22.00
2023-03-21T02:47:57.805Z,22.10
2023-03-21T02:50:33.764Z,22.00
2023-03-21T02:53:04.437Z,22.10
2023-03-21T02:55:34.843Z,22.00
2023-03-21T02:58:12.281Z,22.00
2023-03-21T03:00:43.597Z,22.00
2023-03-21T03:03:18.145Z,22.10
2023-03-21T03:05:58.304Z,22.00
2023-03-21T03:08:47.629Z,22.00
2023-03-21T03:11:31.414Z,22.10
2023-03-21T03:14:53.170Z,22.00
2023-03-21T03:17:37.465Z,22.00
2023-03-21T03:20:33.855Z,22.00
2023-03-21T03:23:33.551Z,22.00
2023-03-21T03:26:12.417Z,22.00
2023-03-21T03:28:44.853Z,22.00
2023-03-21T03:31:15.822Z,22.00
2023-03-21T03:33:48.405Z,22.00
2023-03-21T03:36:31.153Z,22.00
2023-03-21T03:39:04.564Z,22.00
2023-03-21T03:42:00.827Z,21.90
2023-03-21T03:44:21.754Z,22.00
2023-03-21T03:46:58.419Z,22.00
2023-03-21T03:49:29.381Z,22.00
2023-03-21T03:52:08.666Z,22.00
2023-03-21T03:54:43.359Z,22.00
2023-03-21T03:57:12.587Z,22.00
2023-03-21T03:59:41.624Z,22.00
2023-03-21T04:02:09.033Z,21.90
2023-03-21T04:04:37.047Z,21.90
2023-03-21T04:07:06.559Z,21.90
2023-03-21T04:09:43.584Z,21.90
2023-03-21T04:12:13.097Z,21.90
2023-03-21T04:14:45.670Z,21.90
2023-03-21T04:17:14.546Z,21.90
2023-03-21T04:19:41.691Z,21.90
2023-03-21T04:22:08.938Z,21.90
2023-03-21T04:24:37.584Z,21.90
2023-03-21T04:27:06.048Z,21.90
2023-03-21T04:29:33.460Z,21.90
2023-03-21T04:32:01.567Z,21.90
2023-03-21T04:34:28.851Z,21.90
2023-03-21T04:36:56.968Z,21.90
2023-03-21T04:39:24.855Z,21.90
2023-03-21T04:41:51.992Z,21.90
2023-03-21T04:44:19.294Z,21.90
2023-03-21T04:46:46.438Z,21.90
2023-03-21T04:49:14.763Z,21.90
2023-03-21T04:51:44.224Z,21.90
2023-03-21T04:56:41.180Z,21.90
2023-03-21T04:59:12.457Z,21.90
2023-03-21T05:01:41.363Z,21.90
2023-03-21T05:04:08.503Z,21.90
2023-03-21T05:06:36.586Z,21.90
2023-03-21T05:09:08.408Z,21.90
2023-03-21T05:11:37.968Z,21.90
2023-03-21T05:14:07.209Z,21.90
2023-03-21T05:16:36.579Z,21.90
2023-03-21T05:19:04.079Z,21.90
2023-03-21T05:21:43.766Z,21.90
2023-03-21T05:24:14.690Z,21.90
2023-03-21T05:26:44.318Z,21.90
2023-03-21T05:29:11.734Z,21.90
2023-03-21T05:31:38.884Z,22.00
2023-03-21T05:34:06.177Z,21.90
2023-03-21T05:36:36.154Z,21.90
2023-03-21T05:39:03.753Z,21.90
2023-03-21T05:41:31.047Z,21.90
2023-03-21T05:43:58.369Z,21.90
2023-03-21T05:46:25.557Z,21.90
2023-03-21T05:48:52.709Z,21.90
2023-03-21T05:51:19.789Z,21.90
2023-03-21T05:53:46.913Z,21.90
2023-03-21T05:56:14.151Z,21.90
2023-03-21T05:58:41.241Z,22.00
2023-03-21T06:01:08.443Z,22.00
2023-03-21T06:03:35.981Z,22.00
2023-03-21T06:06:03.777Z,22.00
2023-03-21T06:08:31.902Z,22.10
2023-03-21T06:10:59.058Z,22.10
2023-03-21T06:13:26.202Z,22.20
2023-03-21T06:15:53.691Z,22.30
2023-03-21T06:18:21.640Z,22.30
2023-03-21T06:20:48.695Z,22.30
2023-03-21T06:23:16.062Z,22.40
2023-03-21T06:25:43.148Z,22.40
2023-03-21T06:28:10.398Z,22.50
2023-03-21T06:30:38.029Z,22.50
2023-03-21T06:33:05.425Z,22.60
2023-03-21T06:35:32.553Z,22.60
2023-03-21T06:37:59.868Z,22.70
2023-03-21T06:40:27.045Z,22.80
2023-03-21T06:42:57.457Z,22.80
2023-03-21T06:45:25.714Z,22.80
2023-03-21T06:47:52.851Z,23.00
2023-03-21T06:50:20.156Z,23.00
2023-03-21T06:52:47.255Z,23.00
2023-03-21T06:55:14.725Z,23.10
2023-03-21T06:57:41.814Z,23.10
2023-03-21T07:00:09.957Z,23.10
2023-03-21T07:02:39.010Z,23.20
2023-03-21T07:05:07.004Z,23.30
2023-03-21T07:07:34.849Z,23.30
2023-03-21T07:10:02.020Z,23.40
2023-03-21T07:12:29.247Z,23.40
2023-03-21T07:14:56.518Z,23.40
2023-03-21T07:17:23.757Z,23.50
2023-03-21T07:19:51.162Z,23.50
2023-03-21T07:22:18.743Z,23.60
2023-03-21T07:24:55.876Z,23.60
2023-03-21T07:27:29.694Z,23.70
2023-03-21T07:29:57.393Z,23.70
2023-03-21T07:32:24.536Z,23.80
2023-03-21T07:34:51.719Z,23.80
2023-03-21T07:37:18.991Z,23.90
2023-03-21T07:39:46.114Z,23.90
2023-03-21T07:42:13.791Z,24.00
2023-03-21T07:44:40.903Z,24.00
2023-03-21T07:47:07.991Z,24.00
2023-03-21T07:49:35.106Z,24.10
2023-03-21T07:52:04.652Z,24.10
2023-03-21T07:54:32.859Z,24.10
2023-03-21T07:57:00.106Z,24.20
2023-03-21T07:59:27.278Z,24.20
2023-03-21T08:01:54.339Z,24.30
2023-03-21T08:04:22.702Z,24.30
2023-03-21T08:06:51.553Z,24.30
2023-03-21T08:09:18.724Z,24.40
2023-03-21T08:11:45.815Z,24.50
2023-03-21T08:14:12.867Z,24.50
2023-03-21T08:16:39.961Z,24.50
2023-03-21T08:19:07.502Z,24.60
2023-03-21T08:21:34.672Z,24.70
2023-03-21T08:24:01.767Z,24.70
2023-03-21T08:26:28.928Z,24.80
2023-03-21T08:28:56.056Z,24.80
2023-03-21T08:31:24.008Z,24.80
2023-03-21T08:33:54.539Z,24.80
2023-03-21T08:36:25.687Z,24.80
2023-03-21T08:38:57.191Z,24.90
2023-03-21T08:41:26.156Z,24.90
2023-03-21T08:43:53.343Z,25.00
2023-03-21T08:46:20.492Z,25.10
2023-03-21T08:48:47.975Z,25.10
2023-03-21T08:51:15.168Z,25.10
2023-03-21T08:53:44.203Z,25.10
2023-03-21T08:56:12.096Z,25.20
2023-03-21T08:58:39.381Z,25.20
2023-03-21T09:01:11.767Z,25.30
2023-03-21T09:03:39.108Z,25.30
2023-03-21T09:06:06.569Z,25.30
2023-03-21T09:08:33.637Z,25.40
2023-03-21T09:11:00.768Z,25.40
2023-03-21T09:13:28.413Z,25.40
2023-03-21T09:16:01.428Z,25.40
2023-03-21T09:18:45.461Z,25.40
2023-03-21T09:21:14.836Z,25.40
2023-03-21T09:23:42.735Z,25.40
2023-03-21T09:26:10.195Z,25.40
2023-03-21T09:28:39.135Z,25.50
2023-03-21T09:31:08.476Z,25.40
2023-03-21T09:33:35.565Z,25.50
2023-03-21T09:36:13.069Z,25.50
2023-03-21T09:38:43.248Z,25.50
2023-03-21T09:41:30.250Z,25.50
2023-03-21T09:44:31.558Z,25.50
2023-03-21T09:47:25.417Z,25.50
2023-03-21T09:50:14.643Z,25.50
2023-03-21T09:53:19.347Z,25.40
2023-03-21T09:55:46.992Z,25.40
2023-03-21T09:58:32.726Z,25.40
2023-03-21T10:01:10.672Z,25.40
2023-03-21T10:03:38.327Z,25.40
2023-03-21T10:06:13.391Z,25.40
2023-03-21T10:08:43.500Z,25.40
2023-03-21T10:11:13.635Z,25.50
2023-03-21T10:13:47.478Z,25.40
2023-03-21T10:16:18.059Z,25.40
2023-03-21T10:18:46.998Z,25.50
2023-03-21T10:21:51.388Z,25.50
2023-03-21T10:24:18.855Z,25.50
2023-03-21T10:26:47.788Z,25.50
2023-03-21T10:29:18.731Z,25.60
2023-03-21T10:31:48.275Z,25.60
2023-03-21T10:34:27.936Z,25.60
2023-03-21T10:36:55.297Z,25.70
2023-03-21T10:39:34.829Z,25.70
2023-03-21T10:42:02.338Z,25.70
2023-03-21T10:44:32.123Z,25.70
2023-03-21T10:47:07.762Z,25.70
2023-03-21T10:50:05.426Z,25.70
2023-03-21T10:52:33.746Z,25.70
2023-03-21T10:55:32.274Z,25.70
2023-03-21T10:58:19.071Z,25.70
2023-03-21T11:00:48.585Z,25.70
2023-03-21T11:03:25.542Z,25.70
2023-03-21T11:06:10.114Z,25.70
2023-03-21T11:08:51.468Z,25.70
2023-03-21T11:11:27.936Z,25.70
2023-03-21T11:14:07.216Z,25.80
2023-03-21T11:16:45.008Z,25.80
2023-03-21T11:19:26.782Z,25.80
2023-03-21T11:21:56.613Z,25.80
2023-03-21T11:24:23.961Z,25.80
2023-03-21T11:26:51.532Z,25.80
2023-03-21T11:29:36.219Z,25.80
2023-03-21T11:32:23.885Z,25.80
2023-03-21T11:34:57.931Z,25.80
2023-03-21T11:37:33.652Z,25.70
2023-03-21T11:40:23.359Z,25.50
2023-03-21T11:42:55.325Z,25.40
2023-03-21T11:45:26.094Z,25.30
2023-03-21T11:47:59.295Z,25.30
2023-03-21T11:50:32.841Z,25.30
2023-03-21T11:53:35.621Z,25.30
2023-03-21T11:56:33.429Z,25.40
2023-03-21T11:59:37.980Z,25.40
2023-03-21T12:02:34.919Z,25.40
2023-03-21T12:05:13.405Z,25.50
2023-03-21T12:07:56.637Z,25.50
2023-03-21T12:10:50.820Z,25.50
2023-03-21T12:13:44.027Z,25.60
2023-03-21T12:16:48.652Z,25.60
2023-03-21T12:19:55.817Z,25.60
2023-03-21T12:22:39.051Z,25.60
2023-03-21T12:25:20.153Z,25.70
2023-03-21T12:28:31.953Z,25.70
2023-03-21T12:31:26.057Z,25.70
2023-03-21T12:34:18.435Z,25.70
2023-03-21T12:37:17.658Z,25.70
2023-03-21T12:39:49.098Z,25.70
2023-03-21T12:42:46.639Z,25.70
2023-03-21T12:45:21.962Z,25.70
2023-03-21T12:47:53.550Z,25.70
2023-03-21T12:50:26.910Z,25.70
2023-03-21T12:53:04.724Z,25.70
2023-03-21T12:55:35.507Z,25.70
2023-03-21T12:58:18.454Z,25.70
2023-03-21T13:00:52.340Z,25.70
2023-03-21T13:03:39.085Z,25.70
2023-03-21T13:06:09.577Z,25.70
2023-03-21T13:08:56.068Z,25.70
2023-03-21T13:11:27.860Z,25.70
2023-03-21T13:14:08.120Z,25.80
2023-03-21T13:16:49.935Z,25.80
2023-03-21T13:19:31.872Z,25.90
2023-03-21T13:22:15.690Z,25.90
2023-03-21T13:24:49.757Z,25.90
2023-03-21T13:27:32.442Z,25.90
2023-03-21T13:30:07.503Z,25.90
2023-03-21T13:32:42.022Z,25.90
2023-03-21T13:35:18.585Z,25.90
2023-03-21T13:37:57.220Z,26.00
2023-03-21T13:40:38.233Z,26.00
2023-03-21T13:43:46.328Z,26.00
2023-03-21T13:46:46.946Z,26.00
2023-03-21T13:49:38.252Z,26.00
2023-03-21T13:52:27.326Z,26.00
2023-03-21T13:54:57.953Z,26.00
2023-03-21T13:57:39.862Z,26.00
2023-03-21T14:00:27.291Z,26.00
2023-03-21T14:03:06.252Z,25.90
2023-03-21T14:05:35.573Z,25.90
2023-03-21T14:08:17.245Z,26.00
2023-03-21T14:10:55.747Z,26.00
2023-03-21T14:13:26.735Z,26.00
2023-03-21T14:15:58.218Z,26.00
2023-03-21T14:18:41.099Z,25.90
2023-03-21T14:21:24.308Z,25.90
2023-03-21T14:24:12.962Z,25.90
2023-03-21T14:26:53.759Z,25.90
2023-03-21T14:29:34.045Z,25.80
2023-03-21T14:32:02.404Z,25.80
2023-03-21T14:34:33.052Z,25.80
2023-03-21T14:37:01.213Z,25.80
2023-03-21T14:39:33.619Z,25.80
2023-03-21T14:42:07.245Z,25.80
2023-03-21T14:44:58.350Z,25.80
2023-03-21T14:47:32.270Z,25.80
2023-03-21T14:50:01.321Z,25.80
2023-03-21T14:52:32.671Z,25.80
2023-03-21T14:55:01.855Z,25.80
2023-03-21T14:57:31.975Z,25.80
2023-03-21T15:00:14.718Z,25.90
2023-03-21T15:02:46.078Z,25.80
2023-03-21T15:05:26.531Z,25.80
2023-03-21T15:08:02.122Z,25.80
2023-03-21T15:10:31.929Z,25.80
2023-03-21T15:13:14.212Z,25.80
2023-03-21T15:15:42.431Z,25.80
2023-03-21T15:18:16.333Z,25.90
2023-03-21T15:20:46.819Z,25.80
2023-03-21T15:23:26.889Z,25.80
2023-03-21T15:25:54.514Z,25.80
2023-03-21T15:28:22.164Z,25.80
2023-03-21T15:30:51.275Z,25.80
2023-03-21T15:33:19.548Z,25.80
2023-03-21T15:35:55.823Z,25.70
2023-03-21T15:38:33.037Z,25.70
2023-03-21T15:41:29.383Z,25.70
2023-03-21T15:44:15.252Z,25.70
2023-03-21T15:46:50.996Z,25.60
2023-03-21T15:49:40.450Z,25.50
2023-03-21T15:52:16.288Z,25.50
2023-03-21T15:54:51.011Z,25.40
2023-03-21T15:57:30.147Z,25.40
2023-03-21T16:00:07.346Z,25.40
2023-03-21T16:02:34.923Z,25.40
2023-03-21T16:05:21.726Z,25.40
2023-03-21T16:07:49.613Z,25.40
2023-03-21T16:10:38.020Z,25.30
2023-03-21T16:13:06.771Z,25.30
2023-03-21T16:15:34.220Z,25.30
2023-03-21T16:18:04.419Z,25.20
2023-03-21T16:20:36.983Z,25.20
2023-03-21T16:23:04.596Z,25.20
2023-03-21T16:25:33.555Z,25.10
2023-03-21T16:28:00.632Z,25.10
2023-03-21T16:30:27.910Z,25.10
2023-03-21T16:32:55.021Z,25.10
2023-03-21T16:35:23.619Z,25.10
2023-03-21T16:37:50.947Z,25.00
2023-03-21T16:40:31.605Z,25.00
2023-03-21T16:42:58.869Z,24.90
2023-03-21T16:45:28.416Z,24.90
2023-03-21T16:47:55.673Z,24.90
2023-03-21T16:50:35.379Z,24.90
2023-03-21T16:53:03.559Z,24.80
2023-03-21T16:55:33.657Z,24.80
2023-03-21T16:58:01.637Z,24.70
2023-03-21T17:00:30.904Z,24.70
2023-03-21T17:03:01.714Z,24.70
2023-03-21T17:05:30.997Z,24.60
2023-03-21T17:08:02.235Z,24.60
2023-03-21T17:10:31.334Z,24.50
2023-03-21T17:12:58.891Z,24.50
2023-03-21T17:15:26.120Z,24.50
2023-03-21T17:17:55.711Z,24.40
2023-03-21T17:20:31.675Z,24.30
2023-03-21T17:22:59.232Z,24.30
2023-03-21T17:25:27.271Z,24.30
2023-03-21T17:27:54.554Z,24.20
2023-03-21T17:30:28.181Z,24.20
2023-03-21T17:32:55.840Z,24.20
2023-03-21T17:35:23.722Z,24.10
2023-03-21T17:37:52.157Z,24.10
2023-03-21T17:40:22.835Z,24.10
2023-03-21T17:42:51.258Z,24.00
2023-03-21T17:45:19.184Z,24.00
2023-03-21T17:47:47.375Z,24.00
2023-03-21T17:50:21.521Z,24.00
2023-03-21T17:52:50.690Z,23.90
2023-03-21T17:55:22.469Z,23.90
2023-03-21T17:57:49.938Z,23.90
2023-03-21T18:00:23.096Z,23.90
2023-03-21T18:02:50.812Z,23.90
2023-03-21T18:05:18.726Z,23.90
2023-03-21T18:08:08.969Z,23.80
2023-03-21T18:10:33.799Z,23.80
2023-03-21T18:13:00.994Z,23.80
2023-03-21T18:15:30.464Z,23.80
2023-03-21T18:17:58.359Z,23.80
2023-03-21T18:20:50.355Z,23.80
2023-03-21T18:23:18.860Z,23.70
2023-03-21T18:25:46.088Z,23.70
2023-03-21T18:28:13.811Z,23.70
2023-03-21T18:31:09.545Z,23.70
2023-03-21T18:33:30.115Z,23.60
2023-03-21T18:35:59.445Z,23.60
2023-03-21T18:38:27.955Z,23.70
2023-03-21T18:40:56.126Z,23.60
2023-03-21T18:46:10.745Z,23.60
2023-03-21T18:48:37.859Z,23.60
2023-03-21T18:51:06.392Z,23.60
2023-03-21T18:53:33.449Z,23.60
2023-03-21T18:56:00.879Z,23.50
2023-03-21T18:58:29.399Z,23.50
2023-03-21T19:00:59.790Z,23.50
2023-03-21T19:03:37.228Z,23.50
2023-03-21T19:06:06.550Z,23.50
2023-03-21T19:08:36.965Z,23.50
2023-03-21T19:11:06.681Z,23.50
2023-03-21T19:13:34.341Z,23.40
2023-03-21T19:16:03.064Z,23.40
2023-03-21T19:21:19.994Z,23.40
2023-03-21T19:24:22.859Z,23.40
2023-03-21T19:26:34.849Z,23.40
2023-03-21T19:29:01.951Z,23.40
2023-03-21T19:31:29.169Z,23.40
2023-03-21T19:33:56.352Z,23.30
2023-03-21T19:36:23.748Z,23.30
2023-03-21T19:38:51.709Z,23.30
2023-03-21T19:41:20.216Z,23.30
2023-03-21T19:43:54.741Z,23.30
2023-03-21T19:46:25.595Z,23.30
2023-03-21T19:48:57.334Z,23.30
2023-03-21T19:51:29.713Z,23.20
2023-03-21T19:54:03.467Z,23.30
2023-03-21T19:56:31.639Z,23.20
2023-03-21T19:58:59.865Z,23.30
2023-03-21T20:01:27.778Z,23.20
2023-03-21T20:03:55.113Z,23.20
2023-03-21T20:06:25.452Z,23.20
2023-03-21T20:11:40.868Z,23.20
2023-03-21T20:14:08.025Z,23.20
2023-03-21T20:16:36.828Z,23.20
2023-03-21T20:19:06.223Z,23.20
2023-03-21T20:21:45.301Z,23.20
2023-03-21T20:24:16.994Z,23.20
2023-03-21T20:26:45.283Z,23.20
2023-03-21T20:30:07.182Z,23.20
2023-03-21T20:32:00.227Z,23.10
2023-03-21T20:34:29.143Z,23.10
2023-03-21T20:36:58.515Z,23.10
2023-03-21T20:39:28.629Z,23.10
2023-03-21T20:41:58.924Z,23.10
2023-03-21T20:44:57.280Z,23.10
2023-03-21T20:47:14.721Z,23.10
2023-03-21T20:49:41.915Z,23.10
2023-03-21T20:55:00.267Z,23.00
2023-03-21T20:57:28.315Z,23.00
2023-03-21T20:59:55.696Z,23.00
2023-03-21T21:02:23.905Z,23.00
2023-03-21T21:05:23.623Z,23.00
2023-03-21T21:07:41.972Z,23.00
2023-03-21T21:10:15.363Z,23.00
2023-03-21T21:12:45.405Z,23.00
2023-03-21T21:15:14.981Z,23.00
2023-03-21T21:20:29.473Z,23.00
2023-03-21T21:23:00.191Z,23.00
2023-03-21T21:25:29.193Z,23.00
2023-03-21T21:27:56.564Z,22.90
2023-03-21T21:30:24.102Z,22.90
2023-03-21T21:32:51.226Z,22.90
2023-03-21T21:35:19.730Z,22.90
2023-03-21T21:37:46.958Z,22.90
2023-03-21T21:40:15.925Z,22.90
2023-03-21T21:42:44.196Z,22.90
2023-03-21T21:45:13.045Z,22.90
2023-03-21T21:47:41.038Z,22.90
2023-03-21T21:50:09.090Z,22.90
2023-03-21T21:52:37.540Z,22.90
2023-03-21T21:55:06.629Z,22.90
2023-03-21T21:57:34.789Z,22.90
2023-03-21T22:00:07.004Z,22.90
2023-03-21T22:02:34.388Z,22.90
2023-03-21T22:05:01.562Z,22.90
2023-03-21T22:07:28.719Z,22.90
2023-03-21T22:09:56.280Z,22.90
2023-03-21T22:12:23.340Z,22.90
2023-03-21T22:14:50.453Z,22.90
2023-03-21T22:17:17.532Z,22.90
2023-03-21T22:19:52.717Z,22.90
2023-03-21T22:22:26.799Z,22.90
2023-03-21T22:24:56.424Z,22.90
2023-03-21T22:27:24.088Z,22.90
2023-03-21T22:29:51.171Z,22.90
2023-03-21T22:32:19.222Z,22.80
2023-03-21T22:34:46.543Z,22.90
2023-03-21T22:37:13.885Z,22.80
2023-03-21T22:39:41.019Z,22.80
2023-03-21T22:42:08.047Z,22.80
2023-03-21T22:44:35.341Z,22.80
2023-03-21T22:47:10.779Z,22.80
2023-03-21T22:49:38.882Z,22.80
2023-03-21T22:52:07.028Z,22.70
2023-03-21T22:54:34.197Z,22.80
2023-03-21T22:57:01.382Z,22.70
2023-03-21T22:59:28.867Z,22.80
2023-03-21T23:01:56.825Z,22.70
2023-03-21T23:04:26.117Z,22.70
2023-03-21T23:06:54.280Z,22.70
2023-03-21T23:09:21.458Z,22.70
2023-03-21T23:11:49.805Z,22.70
2023-03-21T23:14:21.298Z,22.70
2023-03-21T23:16:52.193Z,22.70
2023-03-21T23:19:21.321Z,22.70
2023-03-21T23:21:48.861Z,22.70
2023-03-21T23:24:16.025Z,22.70
2023-03-21T23:26:43.199Z,22.70
2023-03-21T23:29:11.067Z,22.70
2023-03-21T23:31:38.271Z,22.70
2023-03-21T23:34:05.970Z,22.70
2023-03-21T23:36:33.184Z,22.70
2023-03-21T23:39:00.776Z,22.60
2023-03-21T23:41:27.969Z,22.60
2023-03-21T23:43:55.080Z,22.60
2023-03-21T23:46:22.352Z,22.60
2023-03-21T23:48:49.620Z,22.60
2023-03-21T23:51:18.239Z,22.60
2023-03-21T23:53:46.450Z,22.60
2023-03-21T23:56:20.140Z,22.60
2023-03-21T23:58:48.185Z,22.60
